createdAt,value
2018-03-03T00:01:10.312Z,91882.84
2018-03-03T00:03:37.856Z,91925.58
2018-03-03T00:06:06.359Z,91902.91
2018-03-03T00:08:33.934Z,91892.27
2018-03-03T00:11:01.481Z,91915.47
2018-03-03T00:13:29.049Z,91919.44
2018-03-03T00:15:56.642Z,91902.91
2018-03-03T00:18:24.196Z,91938.10
2018-03-03T00:20:51.751Z,91904.84
2018-03-03T00:23:19.323Z,91923.25
2018-03-03T00:25:46.875Z,91904.52
2018-03-03T00:28:14.439Z,91936.37
2018-03-03T00:30:42.046Z,91915.14
2018-03-03T00:33:09.599Z,91934.34
2018-03-03T00:35:37.162Z,91941.92
2018-03-03T00:38:04.868Z,91952.39
2018-03-03T00:40:32.429Z,91947.23
2018-03-03T00:42:59.981Z,91968.80
2018-03-03T00:45:27.882Z,91939.69
2018-03-03T00:47:55.443Z,91937.92
2018-03-03T00:50:23.001Z,91971.64
2018-03-03T00:52:50.595Z,91969.02
2018-03-03T00:55:18.156Z,91989.02
2018-03-03T00:57:45.713Z,91995.12
2018-03-03T01:00:13.477Z,92003.71
2018-03-03T01:02:41.024Z,91995.77
2018-03-03T01:05:08.569Z,91991.50
2018-03-03T01:07:36.316Z,91977.27
2018-03-03T01:10:03.897Z,91974.60
2018-03-03T01:12:31.447Z,91974.85
2018-03-03T01:14:59.044Z,91976.71
2018-03-03T01:17:26.588Z,91967.48
2018-03-03T01:19:54.129Z,91974.31
2018-03-03T01:22:21.703Z,91969.55
2018-03-03T01:24:49.253Z,91976.34
2018-03-03T01:27:16.831Z,91977.02
2018-03-03T01:29:44.427Z,91969.30
2018-03-03T01:32:11.985Z,91979.31
2018-03-03T01:34:39.560Z,91977.50
2018-03-03T01:37:07.150Z,91975.29
2018-03-03T01:39:34.700Z,91977.53
2018-03-03T01:42:02.250Z,91981.45
2018-03-03T01:44:29.991Z,91981.58
2018-03-03T01:46:57.541Z,92000.55
2018-03-03T01:49:25.119Z,92006.60
2018-03-03T01:51:53.681Z,92008.45
2018-03-03T01:54:21.235Z,92021.80
2018-03-03T01:56:48.774Z,92025.73
2018-03-03T01:59:16.509Z,92022.06
2018-03-03T02:01:44.080Z,92020.83
2018-03-03T02:04:11.617Z,92026.16
2018-03-03T02:06:39.149Z,92007.08
2018-03-03T02:09:06.694Z,91971.06
2018-03-03T02:11:34.277Z,91960.33
2018-03-03T02:14:01.824Z,91951.55
2018-03-03T02:16:29.353Z,91943.09
2018-03-03T02:18:56.952Z,91935.38
2018-03-03T02:21:24.493Z,91934.03
2018-03-03T02:23:52.027Z,91936.10
2018-03-03T02:26:19.605Z,91920.53
2018-03-03T02:28:47.160Z,91918.61
2018-03-03T02:31:14.712Z,91921.73
2018-03-03T02:33:42.433Z,91916.13
2018-03-03T02:36:09.984Z,91913.00
2018-03-03T02:38:37.529Z,91929.63
2018-03-03T02:41:05.105Z,91925.52
2018-03-03T02:43:32.637Z,91922.60
2018-03-03T02:46:00.192Z,91918.48
2018-03-03T02:48:27.935Z,91923.48
2018-03-03T02:50:55.480Z,91919.36
2018-03-03T02:53:23.016Z,91935.81
2018-03-03T02:55:50.583Z,91923.95
2018-03-03T02:58:18.127Z,91917.64
2018-03-03T03:00:45.680Z,91914.91
2018-03-03T03:03:13.355Z,91935.25
2018-03-03T03:05:40.909Z,91936.25
2018-03-03T03:08:08.450Z,91943.22
2018-03-03T03:10:36.179Z,91939.56
2018-03-03T03:13:03.722Z,91935.81
2018-03-03T03:15:31.273Z,91952.61
2018-03-03T03:17:58.845Z,91930.95
2018-03-03T03:20:26.390Z,91934.42
2018-03-03T03:22:53.958Z,91940.81
2018-03-03T03:25:21.629Z,91955.75
2018-03-03T03:27:49.213Z,91950.05
2018-03-03T03:30:16.776Z,91938.78
2018-03-03T03:32:44.753Z,91932.02
2018-03-03T03:35:12.344Z,91947.28
2018-03-03T03:37:39.856Z,91938.25
2018-03-03T03:40:07.434Z,91947.26
2018-03-03T03:42:34.990Z,91958.25
2018-03-03T03:45:02.538Z,91941.95
2018-03-03T03:47:30.131Z,91950.78
2018-03-03T03:49:57.689Z,91949.81
2018-03-03T03:52:25.255Z,91946.04
2018-03-03T03:54:52.831Z,91950.09
2018-03-03T03:57:20.370Z,91932.62
2018-03-03T03:59:47.918Z,91936.19
2018-03-03T04:02:15.498Z,91932.20
2018-03-03T04:04:43.036Z,91929.30
2018-03-03T04:07:10.586Z,91930.70
2018-03-03T04:09:38.259Z,91912.78
2018-03-03T04:12:05.817Z,91913.11
2018-03-03T04:14:33.349Z,91916.53
2018-03-03T04:17:01.079Z,91905.66
2018-03-03T04:19:28.618Z,91904.09
2018-03-03T04:21:56.207Z,91907.64
2018-03-03T04:24:23.813Z,91916.03
2018-03-03T04:26:51.373Z,91912.72
2018-03-03T04:29:18.938Z,91891.52
2018-03-03T04:31:46.534Z,91906.77
2018-03-03T04:34:14.071Z,91913.67
2018-03-03T04:36:41.635Z,91925.32
2018-03-03T04:39:09.206Z,91913.00
2018-03-03T04:41:36.754Z,91930.50
2018-03-03T04:44:04.288Z,91936.92
2018-03-03T04:46:32.174Z,91922.98
2018-03-03T04:48:59.740Z,91939.05
2018-03-03T04:51:27.323Z,91947.52
2018-03-03T04:53:55.071Z,91934.46
2018-03-03T04:56:22.638Z,91946.18
2018-03-03T04:58:55.773Z,91951.48
2018-03-03T05:01:23.382Z,91956.25
2018-03-03T05:04:05.798Z,91953.13
2018-03-03T05:06:38.808Z,91958.53
2018-03-03T05:09:06.369Z,91953.94
2018-03-03T05:11:33.943Z,91956.05
2018-03-03T05:14:06.955Z,91971.94
2018-03-03T05:16:40.160Z,91983.46
2018-03-03T05:19:13.581Z,91997.97
2018-03-03T05:27:54.714Z,92007.38
2018-03-03T05:30:27.913Z,92010.93
2018-03-03T05:33:01.017Z,92013.31
2018-03-03T05:35:34.062Z,92010.16
2018-03-03T05:38:07.095Z,92027.59
2018-03-03T05:40:40.134Z,92029.66
2018-03-03T05:43:13.237Z,92044.36
2018-03-03T05:45:46.266Z,92043.67
2018-03-03T05:51:36.146Z,92048.72
2018-03-03T05:54:05.498Z,92046.27
2018-03-03T05:56:50.987Z,92047.82
2018-03-03T05:59:24.016Z,92052.34
2018-03-03T06:05:01.846Z,92070.55
2018-03-03T06:07:41.319Z,92057.88
2018-03-03T06:10:08.901Z,92053.73
2018-03-03T06:12:36.441Z,92064.39
2018-03-03T06:15:04.186Z,92069.45
2018-03-03T06:17:31.722Z,92065.53
2018-03-03T06:19:59.290Z,92059.83
2018-03-03T06:22:27.042Z,92061.44
2018-03-03T06:24:54.571Z,92059.45
2018-03-03T06:27:22.985Z,92072.11
2018-03-03T06:29:50.866Z,92074.67
2018-03-03T06:32:18.454Z,92080.70
2018-03-03T06:34:45.985Z,92082.80
2018-03-03T06:37:13.937Z,92099.73
2018-03-03T06:39:41.473Z,92105.45
2018-03-03T06:42:09.007Z,92106.34
2018-03-03T06:44:36.638Z,92093.39
2018-03-03T06:47:04.177Z,92098.96
2018-03-03T06:49:31.717Z,92106.59
2018-03-03T06:51:59.299Z,92103.88
2018-03-03T06:54:26.831Z,92121.16
2018-03-03T06:56:54.372Z,92103.41
2018-03-03T06:59:21.958Z,92114.67
2018-03-03T07:01:49.492Z,92102.30
2018-03-03T07:04:17.036Z,92111.56
2018-03-03T07:06:44.578Z,92110.29
2018-03-03T07:09:12.147Z,92109.77
2018-03-03T07:11:39.740Z,92102.36
2018-03-03T07:14:07.320Z,92101.48
2018-03-03T07:16:34.887Z,92112.67
2018-03-03T07:19:02.616Z,92116.52
2018-03-03T07:21:30.162Z,92123.31
2018-03-03T07:23:57.703Z,92130.17
2018-03-03T07:26:25.277Z,92137.28
2018-03-03T07:28:52.823Z,92140.20
2018-03-03T07:31:20.367Z,92144.55
2018-03-03T07:33:48.184Z,92149.48
2018-03-03T07:36:15.730Z,92141.52
2018-03-03T07:38:43.268Z,92141.94
2018-03-03T07:41:11.001Z,92145.45
2018-03-03T07:43:38.540Z,92153.36
2018-03-03T07:46:06.074Z,92156.22
2018-03-03T07:48:33.781Z,92139.60
2018-03-03T07:51:01.349Z,92145.13
2018-03-03T07:53:28.886Z,92141.42
2018-03-03T07:55:56.571Z,92137.89
2018-03-03T07:58:35.854Z,92145.47
2018-03-03T08:01:04.246Z,92139.27
2018-03-03T08:03:31.806Z,92147.68
2018-03-03T08:05:59.378Z,92142.84
2018-03-03T08:08:27.146Z,92144.97
2018-03-03T08:10:54.686Z,92141.84
2018-03-03T08:13:22.218Z,92152.58
2018-03-03T08:15:49.787Z,92162.17
2018-03-03T08:18:17.343Z,92145.82
2018-03-03T08:20:44.888Z,92140.81
2018-03-03T08:23:12.475Z,92146.47
2018-03-03T08:25:40.019Z,92157.78
2018-03-03T08:28:07.565Z,92148.30
2018-03-03T08:30:35.157Z,92158.59
2018-03-03T08:33:02.889Z,92165.61
2018-03-03T08:35:30.425Z,92178.20
2018-03-03T08:37:58.034Z,92159.61
2018-03-03T08:40:25.583Z,92164.35
2018-03-03T08:42:53.129Z,92169.27
2018-03-03T08:45:21.495Z,92178.86
2018-03-03T08:47:49.034Z,92174.41
2018-03-03T08:50:16.578Z,92175.03
2018-03-03T08:52:44.157Z,92179.73
2018-03-03T08:55:11.700Z,92186.52
2018-03-03T08:57:39.290Z,92180.72
2018-03-03T09:00:07.002Z,92179.88
2018-03-03T09:02:34.543Z,92167.19
2018-03-03T09:05:02.093Z,92177.22
2018-03-03T09:07:29.641Z,92189.33
2018-03-03T09:09:57.184Z,92182.77
2018-03-03T09:12:24.772Z,92201.42
2018-03-03T09:14:52.320Z,92188.55
2018-03-03T09:17:19.859Z,92200.45
2018-03-03T09:19:47.615Z,92200.41
2018-03-03T09:22:15.156Z,92195.16
2018-03-03T09:24:42.702Z,92198.83
2018-03-03T09:27:10.298Z,92190.38
2018-03-03T09:29:37.860Z,92200.58
2018-03-03T09:32:05.406Z,92190.55
2018-03-03T09:34:33.171Z,92194.58
2018-03-03T09:37:00.727Z,92195.20
2018-03-03T09:39:28.280Z,92188.75
2018-03-03T09:41:56.227Z,92188.48
2018-03-03T09:44:23.794Z,92189.58
2018-03-03T09:46:51.350Z,92195.05
2018-03-03T09:49:19.184Z,92199.83
2018-03-03T09:51:46.746Z,92195.23
2018-03-03T09:54:14.295Z,92197.59
2018-03-03T09:56:42.203Z,92195.62
2018-03-03T09:59:09.744Z,92208.36
2018-03-03T10:01:43.359Z,92200.30
2018-03-03T10:04:05.907Z,92194.27
2018-03-03T10:06:33.455Z,92210.44
2018-03-03T10:09:01.018Z,92210.75
2018-03-03T10:11:28.639Z,92196.72
2018-03-03T10:13:56.197Z,92204.91
2018-03-03T10:16:23.749Z,92200.38
2018-03-03T10:18:51.757Z,92201.02
2018-03-03T10:21:19.374Z,92207.09
2018-03-03T10:23:46.944Z,92198.06
2018-03-03T10:26:14.688Z,92199.73
2018-03-03T10:28:42.245Z,92201.31
2018-03-03T10:31:09.785Z,92207.41
2018-03-03T10:33:37.371Z,92197.94
2018-03-03T10:36:04.956Z,92183.09
2018-03-03T10:38:33.103Z,92189.89
2018-03-03T10:41:00.832Z,92183.67
2018-03-03T10:43:28.389Z,92176.81
2018-03-03T10:45:55.984Z,92165.16
2018-03-03T10:48:23.578Z,92161.83
2018-03-03T10:50:51.145Z,92172.28
2018-03-03T10:53:18.689Z,92168.29
2018-03-03T10:55:46.443Z,92172.47
2018-03-03T10:58:14.021Z,92160.67
2018-03-03T11:00:41.589Z,92171.72
2018-03-03T11:03:09.188Z,92145.77
2018-03-03T11:05:36.752Z,92155.02
2018-03-03T11:08:04.298Z,92149.38
2018-03-03T11:10:31.890Z,92148.78
2018-03-03T11:12:59.442Z,92150.00
2018-03-03T11:15:27.011Z,92147.73
2018-03-03T11:17:54.611Z,92147.20
2018-03-03T11:20:22.158Z,92155.95
2018-03-03T11:22:49.708Z,92151.09
2018-03-03T11:25:17.278Z,92156.75
2018-03-03T11:27:44.838Z,92162.78
2018-03-03T11:30:12.385Z,92152.91
2018-03-03T11:32:39.963Z,92154.55
2018-03-03T11:35:07.512Z,92151.30
2018-03-03T11:37:35.063Z,92145.29
2018-03-03T11:40:02.796Z,92143.97
2018-03-03T11:42:30.355Z,92142.16
2018-03-03T11:44:57.898Z,92135.98
2018-03-03T11:47:25.661Z,92130.70
2018-03-03T11:49:53.214Z,92115.92
2018-03-03T11:52:20.750Z,92108.31
2018-03-03T11:54:48.365Z,92107.44
2018-03-03T11:57:15.928Z,92102.73
2018-03-03T11:59:43.475Z,92114.93
2018-03-03T12:02:11.182Z,92107.25
2018-03-03T12:04:38.726Z,92113.08
2018-03-03T12:07:06.299Z,92118.80
2018-03-03T12:09:33.886Z,92110.51
2018-03-03T12:12:01.433Z,92110.69
2018-03-03T12:14:28.983Z,92107.23
2018-03-03T12:16:56.656Z,92113.02
2018-03-03T12:19:24.188Z,92101.00
2018-03-03T12:21:51.744Z,92112.59
2018-03-03T12:24:19.467Z,92120.75
2018-03-03T12:26:47.021Z,92119.16
2018-03-03T12:29:14.567Z,92109.84
2018-03-03T12:31:42.161Z,92103.23
2018-03-03T12:34:09.698Z,92130.44
2018-03-03T12:36:37.251Z,92108.26
2018-03-03T12:39:05.057Z,92110.68
2018-03-03T12:41:32.644Z,92114.00
2018-03-03T12:44:00.193Z,92118.29
2018-03-03T12:46:27.871Z,92129.92
2018-03-03T12:48:55.419Z,92125.75
2018-03-03T12:51:22.946Z,92121.67
2018-03-03T12:53:50.510Z,92113.94
2018-03-03T12:56:18.052Z,92129.86
2018-03-03T12:58:45.652Z,92108.88
2018-03-03T13:01:13.297Z,92110.38
2018-03-03T13:03:40.848Z,92137.30
2018-03-03T13:06:08.397Z,92129.70
2018-03-03T13:08:35.970Z,92128.50
2018-03-03T13:11:03.502Z,92130.75
2018-03-03T13:13:31.037Z,92129.77
2018-03-03T13:15:58.729Z,92136.93
2018-03-03T13:18:26.295Z,92133.98
2018-03-03T13:20:53.870Z,92128.16
2018-03-03T13:23:21.518Z,92133.38
2018-03-03T13:25:49.058Z,92127.63
2018-03-03T13:28:16.605Z,92125.65
2018-03-03T13:30:44.197Z,92141.70
2018-03-03T13:33:11.739Z,92143.94
2018-03-03T13:35:39.288Z,92148.22
2018-03-03T13:38:06.883Z,92129.17
2018-03-03T13:40:34.442Z,92138.72
2018-03-03T13:43:01.984Z,92140.86
2018-03-03T13:45:29.610Z,92140.06
2018-03-03T13:47:57.150Z,92149.59
2018-03-03T13:50:24.743Z,92147.56
2018-03-03T13:52:52.469Z,92155.38
2018-03-03T13:55:20.039Z,92148.20
2018-03-03T13:57:47.579Z,92155.17
2018-03-03T14:00:15.319Z,92151.57
2018-03-03T14:02:42.866Z,92163.84
2018-03-03T14:05:10.415Z,92164.28
2018-03-03T14:07:37.953Z,92161.77
2018-03-03T14:10:05.499Z,92144.89
2018-03-03T14:12:33.103Z,92171.00
2018-03-03T14:15:00.638Z,92156.48
2018-03-03T14:17:28.221Z,92166.42
2018-03-03T14:19:55.766Z,92167.27
2018-03-03T14:22:23.345Z,92158.40
2018-03-03T14:24:50.901Z,92167.00
2018-03-03T14:27:18.769Z,92144.70
2018-03-03T14:29:46.313Z,92165.30
2018-03-03T14:32:13.850Z,92156.17
2018-03-03T14:34:41.442Z,92169.42
2018-03-03T14:37:08.985Z,92161.88
2018-03-03T14:39:37.382Z,92155.55
2018-03-03T14:42:05.028Z,92161.98
2018-03-03T14:44:32.610Z,92164.19
2018-03-03T14:47:00.173Z,92173.73
2018-03-03T14:49:27.927Z,92177.60
2018-03-03T14:51:55.482Z,92162.21
2018-03-03T14:54:23.026Z,92172.88
2018-03-03T14:56:50.610Z,92158.64
2018-03-03T14:59:18.158Z,92172.56
2018-03-03T15:01:45.715Z,92167.23
2018-03-03T15:04:13.407Z,92156.09
2018-03-03T15:06:40.954Z,92170.16
2018-03-03T15:09:08.499Z,92153.13
2018-03-03T15:11:36.120Z,92166.89
2018-03-03T15:14:03.694Z,92166.42
2018-03-03T15:16:31.246Z,92176.31
2018-03-03T15:18:58.929Z,92163.95
2018-03-03T15:21:26.467Z,92170.34
2018-03-03T15:23:54.016Z,92156.46
2018-03-03T15:26:21.836Z,92166.30
2018-03-03T15:28:49.396Z,92167.00
2018-03-03T15:31:16.944Z,92163.39
2018-03-03T15:33:44.598Z,92171.88
2018-03-03T15:36:12.167Z,92181.64
2018-03-03T15:38:39.727Z,92180.99
2018-03-03T15:41:07.462Z,92198.03
2018-03-03T15:43:34.997Z,92196.84
2018-03-03T15:46:02.537Z,92191.55
2018-03-03T15:48:30.131Z,92195.44
2018-03-03T15:50:57.679Z,92188.30
2018-03-03T15:53:25.235Z,92170.73
2018-03-03T15:55:53.120Z,92186.72
2018-03-03T15:58:20.684Z,92197.00
2018-03-03T16:00:48.287Z,92204.31
2018-03-03T16:03:15.974Z,92201.56
2018-03-03T16:05:43.574Z,92213.86
2018-03-03T16:08:11.118Z,92199.29
2018-03-03T16:10:38.871Z,92209.11
2018-03-03T16:13:06.415Z,92210.42
2018-03-03T16:15:33.971Z,92210.29
2018-03-03T16:18:01.591Z,92220.60
2018-03-03T16:20:29.154Z,92206.62
2018-03-03T16:22:56.694Z,92218.30
2018-03-03T16:25:24.404Z,92215.54
2018-03-03T16:27:52.200Z,92204.68
2018-03-03T16:30:19.778Z,92210.66
2018-03-03T16:32:47.669Z,92215.93
2018-03-03T16:35:15.213Z,92212.97
2018-03-03T16:37:42.780Z,92200.77
2018-03-03T16:40:10.362Z,92207.20
2018-03-03T16:42:37.976Z,92219.66
2018-03-03T16:45:05.530Z,92223.59
2018-03-03T16:47:33.274Z,92214.80
2018-03-03T16:50:00.813Z,92212.57
2018-03-03T16:52:28.389Z,92214.03
2018-03-03T16:54:56.101Z,92213.56
2018-03-03T16:57:23.652Z,92213.09
2018-03-03T16:59:51.199Z,92209.95
2018-03-03T17:02:18.960Z,92210.92
2018-03-03T17:04:46.525Z,92202.39
2018-03-03T17:07:14.084Z,92192.11
2018-03-03T17:09:41.826Z,92192.89
2018-03-03T17:12:09.410Z,92199.25
2018-03-03T17:14:37.003Z,92186.20
2018-03-03T17:17:04.734Z,92187.91
2018-03-03T17:19:32.282Z,92211.84
2018-03-03T17:21:59.856Z,92175.83
2018-03-03T17:24:28.310Z,92181.81
2018-03-03T17:26:55.856Z,92185.85
2018-03-03T17:29:23.420Z,92184.08
2018-03-03T17:31:51.734Z,92181.41
2018-03-03T17:34:19.267Z,92193.61
2018-03-03T17:36:46.868Z,92195.38
2018-03-03T17:39:14.555Z,92175.87
2018-03-03T17:41:42.101Z,92193.66
2018-03-03T17:44:09.654Z,92168.03
2018-03-03T17:46:37.256Z,92172.62
2018-03-03T17:49:04.842Z,92172.27
2018-03-03T17:51:32.421Z,92177.63
2018-03-03T17:53:59.996Z,92182.13
2018-03-03T17:56:27.539Z,92164.43
2018-03-03T17:58:55.097Z,92161.91
2018-03-03T18:01:22.856Z,92159.95
2018-03-03T18:03:50.421Z,92167.73
2018-03-03T18:06:18.048Z,92176.08
2018-03-03T18:08:45.597Z,92165.09
2018-03-03T18:11:15.144Z,92168.36
2018-03-03T18:13:42.765Z,92161.59
2018-03-03T18:16:10.312Z,92173.39
2018-03-03T18:18:37.857Z,92179.50
2018-03-03T18:21:05.440Z,92165.19
2018-03-03T18:23:32.987Z,92161.91
2018-03-03T18:26:00.546Z,92152.50
2018-03-03T18:28:28.269Z,92167.70
2018-03-03T18:30:55.829Z,92138.84
2018-03-03T18:33:23.373Z,92159.80
2018-03-03T18:35:51.105Z,92150.56
2018-03-03T18:38:18.640Z,92147.94
2018-03-03T18:40:46.181Z,92134.89
2018-03-03T18:43:14.072Z,92137.89
2018-03-03T18:45:41.623Z,92139.44
2018-03-03T18:48:09.219Z,92129.68
2018-03-03T18:50:36.806Z,92139.43
2018-03-03T18:53:04.374Z,92155.19
2018-03-03T18:55:31.940Z,92154.31
2018-03-03T18:57:59.549Z,92138.20
2018-03-03T19:00:27.295Z,92148.22
2018-03-03T19:02:54.851Z,92158.67
2018-03-03T19:05:22.448Z,92156.07
2018-03-03T19:07:50.022Z,92152.69
2018-03-03T19:10:17.626Z,92131.64
2018-03-03T19:12:45.203Z,92164.70
2018-03-03T19:15:12.810Z,92164.42
2018-03-03T19:17:40.359Z,92182.25
2018-03-03T19:20:07.956Z,92188.56
2018-03-03T19:22:35.532Z,92217.03
2018-03-03T19:25:03.079Z,92205.50
2018-03-03T19:27:31.001Z,92196.40
2018-03-03T19:29:58.586Z,92212.11
2018-03-03T19:32:26.151Z,92221.58
2018-03-03T19:34:54.068Z,92231.01
2018-03-03T19:37:21.622Z,92228.05
2018-03-03T19:39:49.303Z,92228.11
2018-03-03T19:42:16.914Z,92233.45
2018-03-03T19:44:44.491Z,92227.13
2018-03-03T19:47:12.059Z,92224.34
2018-03-03T19:49:39.684Z,92220.23
2018-03-03T19:52:07.302Z,92221.67
2018-03-03T19:54:34.864Z,92218.03
2018-03-03T19:57:02.603Z,92211.59
2018-03-03T19:59:30.162Z,92201.30
2018-03-03T20:01:57.726Z,92196.45
2018-03-03T20:04:25.458Z,92201.07
2018-03-03T20:06:53.045Z,92196.63
2018-03-03T20:09:20.654Z,92209.88
2018-03-03T20:11:48.504Z,92207.95
2018-03-03T20:14:16.134Z,92198.23
2018-03-03T20:16:43.719Z,92190.77
2018-03-03T20:19:11.468Z,92205.31
2018-03-03T20:21:39.553Z,92208.58
2018-03-03T20:24:07.138Z,92203.83
2018-03-03T20:29:01.567Z,92200.59
2018-03-03T20:31:29.105Z,92188.80
2018-03-03T20:33:56.847Z,92188.83
2018-03-03T20:36:24.415Z,92193.98
2018-03-03T20:38:51.964Z,92198.73
2018-03-03T20:41:19.559Z,92179.27
2018-03-03T20:43:47.106Z,92174.11
2018-03-03T20:46:14.683Z,92181.76
2018-03-03T20:48:42.391Z,92182.13
2018-03-03T20:51:09.942Z,92174.73
2018-03-03T20:53:37.543Z,92177.00
2018-03-03T20:56:05.183Z,92172.20
2018-03-03T20:58:32.764Z,92159.61
2018-03-03T21:01:00.310Z,92156.91
2018-03-03T21:03:28.148Z,92145.44
2018-03-03T21:05:55.733Z,92145.64
2018-03-03T21:08:23.338Z,92138.20
2018-03-03T21:10:50.951Z,92146.08
2018-03-03T21:13:18.524Z,92151.13
2018-03-03T21:15:46.061Z,92147.55
2018-03-03T21:18:13.655Z,92138.91
2018-03-03T21:20:41.205Z,92132.70
2018-03-03T21:23:08.761Z,92134.64
2018-03-03T21:25:36.502Z,92141.02
2018-03-03T21:28:04.095Z,92149.98
2018-03-03T21:30:31.713Z,92157.55
2018-03-03T21:32:59.303Z,92145.20
2018-03-03T21:35:26.854Z,92156.67
2018-03-03T21:37:54.422Z,92163.11
2018-03-03T21:40:22.012Z,92148.33
2018-03-03T21:42:49.620Z,92121.12
2018-03-03T21:45:17.167Z,92138.41
2018-03-03T21:47:44.902Z,92132.08
2018-03-03T21:50:12.463Z,92127.80
2018-03-03T21:52:40.038Z,92129.02
2018-03-03T21:55:07.634Z,92124.56
2018-03-03T21:57:35.200Z,92128.98
2018-03-03T22:00:02.756Z,92130.41
2018-03-03T22:02:30.354Z,92130.11
2018-03-03T22:04:57.899Z,92123.20
2018-03-03T22:07:25.468Z,92117.11
2018-03-03T22:09:53.081Z,92108.59
2018-03-03T22:12:20.634Z,92118.30
2018-03-03T22:14:48.202Z,92123.30
2018-03-03T22:17:15.942Z,92143.00
2018-03-03T22:19:43.497Z,92148.99
2018-03-03T22:22:11.047Z,92138.25
2018-03-03T22:24:38.774Z,92142.53
2018-03-03T22:27:06.327Z,92129.53
2018-03-03T22:29:33.873Z,92120.86
2018-03-03T22:32:01.555Z,92115.64
2018-03-03T22:34:29.109Z,92110.22
2018-03-03T22:36:56.655Z,92115.23
2018-03-03T22:39:24.224Z,92110.65
2018-03-03T22:41:51.780Z,92107.09
2018-03-03T22:44:19.331Z,92081.39
2018-03-03T22:46:46.917Z,92069.52
2018-03-03T22:49:14.484Z,92076.02
2018-03-03T22:51:42.059Z,92087.80
2018-03-03T22:54:09.635Z,92093.87
2018-03-03T22:56:37.186Z,92098.00
2018-03-03T22:59:04.769Z,92101.39
2018-03-03T23:01:32.433Z,92087.80
2018-03-03T23:03:59.977Z,92087.84
2018-03-03T23:06:27.522Z,92079.98
2018-03-03T23:08:55.075Z,92080.86
2018-03-03T23:11:22.631Z,92094.15
2018-03-03T23:13:50.488Z,92100.00
2018-03-03T23:16:18.034Z,92095.88
2018-03-03T23:18:45.588Z,92097.61
2018-03-03T23:21:13.537Z,92091.42
2018-03-03T23:23:41.077Z,92090.67
2018-03-03T23:26:08.631Z,92082.39
2018-03-03T23:28:36.191Z,92072.86
2018-03-03T23:31:03.798Z,92060.05
2018-03-03T23:33:31.305Z,92055.48
2018-03-03T23:35:58.876Z,92048.82
2018-03-03T23:38:26.413Z,92045.50
2018-03-03T23:40:53.965Z,92052.88
2018-03-03T23:43:21.549Z,92038.09
2018-03-03T23:45:49.095Z,92034.69
2018-03-03T23:48:16.644Z,92037.98
2018-03-03T23:50:44.236Z,92028.96
2018-03-03T23:53:11.810Z,92023.23
2018-03-03T23:55:39.358Z,92021.89
2018-03-03T23:58:06.942Z,92019.86
